sensor_id;sensor_type;location;lat;lon;timestamp;temperature;humidity
37910;DHT22;23741;49.446;8.754;2022-09-23T00:01:37;15.30;58.90
37910;DHT22;23741;49.446;8.754;2022-09-23T00:03:40;15.20;58.70
37910;DHT22;23741;49.446;8.754;2022-09-23T00:05:42;15.20;58.70
37910;DHT22;23741;49.446;8.754;2022-09-23T00:07:44;15.20;59.00
37910;DHT22;23741;49.446;8.754;2022-09-23T00:09:46;15.20;58.90
37910;DHT22;23741;49.446;8.754;2022-09-23T00:11:48;15.10;58.60
37910;DHT22;23741;49.446;8.754;2022-09-23T00:13:50;15.10;58.90
37910;DHT22;23741;49.446;8.754;2022-09-23T00:15:52;15.20;59.10
37910;DHT22;23741;49.446;8.754;2022-09-23T00:17:54;15.10;58.90
37910;DHT22;23741;49.446;8.754;2022-09-23T00:19:56;15.10;59.00
37910;DHT22;23741;49.446;8.754;2022-09-23T00:21:57;15.10;58.70
37910;DHT22;23741;49.446;8.754;2022-09-23T00:23:59;15.10;59.10
37910;DHT22;23741;49.446;8.754;2022-09-23T00:26:01;15.10;58.90
37910;DHT22;23741;49.446;8.754;2022-09-23T00:28:03;15.10;59.20
37910;DHT22;23741;49.446;8.754;2022-09-23T00:30:06;15.10;59.00
37910;DHT22;23741;49.446;8.754;2022-09-23T00:32:07;15.10;59.10
37910;DHT22;23741;49.446;8.754;2022-09-23T00:34:09;15.10;59.10
37910;DHT22;23741;49.446;8.754;2022-09-23T00:36:12;15.10;59.10
37910;DHT22;23741;49.446;8.754;2022-09-23T00:38:17;15.10;59.10
37910;DHT22;23741;49.446;8.754;2022-09-23T00:40:18;15.10;59.30
37910;DHT22;23741;49.446;8.754;2022-09-23T00:42:20;15.10;59.30
37910;DHT22;23741;49.446;8.754;2022-09-23T00:46:43;15.10;59.40
37910;DHT22;23741;49.446;8.754;2022-09-23T00:48:45;15.10;59.00
37910;DHT22;23741;49.446;8.754;2022-09-23T00:50:50;15.00;59.00
37910;DHT22;23741;49.446;8.754;2022-09-23T00:52:55;15.00;59.10
37910;DHT22;23741;49.446;8.754;2022-09-23T00:54:57;15.00;59.20
37910;DHT22;23741;49.446;8.754;2022-09-23T00:57:00;15.00;59.30
37910;DHT22;23741;49.446;8.754;2022-09-23T00:59:02;15.00;59.20
37910;DHT22;23741;49.446;8.754;2022-09-23T01:01:03;15.00;59.20
37910;DHT22;23741;49.446;8.754;2022-09-23T01:03:05;15.00;59.40
37910;DHT22;23741;49.446;8.754;2022-09-23T01:05:07;15.00;59.50
37910;DHT22;23741;49.446;8.754;2022-09-23T01:07:09;15.00;59.60
37910;DHT22;23741;49.446;8.754;2022-09-23T01:09:11;14.90;59.80
37910;DHT22;23741;49.446;8.754;2022-09-23T01:13:25;15.00;59.50
37910;DHT22;23741;49.446;8.754;2022-09-23T01:15:35;15.00;59.50
37910;DHT22;23741;49.446;8.754;2022-09-23T01:21:55;15.00;59.80
37910;DHT22;23741;49.446;8.754;2022-09-23T01:28:37;14.90;59.40
37910;DHT22;23741;49.446;8.754;2022-09-23T01:39:50;14.90;59.60
37910;DHT22;23741;49.446;8.754;2022-09-23T01:42:36;14.90;59.80
37910;DHT22;23741;49.446;8.754;2022-09-23T01:44:24;14.80;59.80
37910;DHT22;23741;49.446;8.754;2022-09-23T01:46:34;14.80;59.80
37910;DHT22;23741;49.446;8.754;2022-09-23T01:48:40;14.90;59.60
37910;DHT22;23741;49.446;8.754;2022-09-23T01:53:17;14.80;59.80
37910;DHT22;23741;49.446;8.754;2022-09-23T01:55:24;14.80;59.90
37910;DHT22;23741;49.446;8.754;2022-09-23T01:57:29;14.80;59.90
37910;DHT22;23741;49.446;8.754;2022-09-23T01:59:33;14.80;59.80
37910;DHT22;23741;49.446;8.754;2022-09-23T02:01:38;14.80;59.90
37910;DHT22;23741;49.446;8.754;2022-09-23T02:06:03;14.80;59.70
37910;DHT22;23741;49.446;8.754;2022-09-23T02:08:18;14.80;59.80
37910;DHT22;23741;49.446;8.754;2022-09-23T02:12:33;14.80;60.00
37910;DHT22;23741;49.446;8.754;2022-09-23T02:14:41;14.80;60.10
37910;DHT22;23741;49.446;8.754;2022-09-23T02:16:45;14.70;60.80
37910;DHT22;23741;49.446;8.754;2022-09-23T02:18:50;14.70;59.70
37910;DHT22;23741;49.446;8.754;2022-09-23T02:20:54;14.70;60.00
37910;DHT22;23741;49.446;8.754;2022-09-23T02:25:07;14.70;60.00
37910;DHT22;23741;49.446;8.754;2022-09-23T02:29:31;14.70;60.00
37910;DHT22;23741;49.446;8.754;2022-09-23T02:31:38;14.70;59.80
37910;DHT22;23741;49.446;8.754;2022-09-23T02:33:45;14.70;60.10
37910;DHT22;23741;49.446;8.754;2022-09-23T02:35:56;14.60;60.70
37910;DHT22;23741;49.446;8.754;2022-09-23T02:38:42;14.60;60.20
37910;DHT22;23741;49.446;8.754;2022-09-23T02:40:29;14.60;60.10
37910;DHT22;23741;49.446;8.754;2022-09-23T02:42:37;14.70;60.10
37910;DHT22;23741;49.446;8.754;2022-09-23T02:44:39;14.60;59.80
37910;DHT22;23741;49.446;8.754;2022-09-23T02:46:41;14.60;60.20
37910;DHT22;23741;49.446;8.754;2022-09-23T02:48:50;14.60;60.00
37910;DHT22;23741;49.446;8.754;2022-09-23T02:50:53;14.60;60.10
37910;DHT22;23741;49.446;8.754;2022-09-23T02:52:55;14.60;59.90
37910;DHT22;23741;49.446;8.754;2022-09-23T02:54:58;14.60;60.40
37910;DHT22;23741;49.446;8.754;2022-09-23T02:57:01;14.60;60.00
37910;DHT22;23741;49.446;8.754;2022-09-23T02:59:04;14.60;60.00
37910;DHT22;23741;49.446;8.754;2022-09-23T03:07:25;14.50;60.00
37910;DHT22;23741;49.446;8.754;2022-09-23T03:09:39;14.50;60.10
37910;DHT22;23741;49.446;8.754;2022-09-23T03:11:42;14.50;60.00
37910;DHT22;23741;49.446;8.754;2022-09-23T03:18:04;14.50;60.40
37910;DHT22;23741;49.446;8.754;2022-09-23T03:20:09;14.50;60.10
37910;DHT22;23741;49.446;8.754;2022-09-23T03:22:47;14.40;59.90
37910;DHT22;23741;49.446;8.754;2022-09-23T03:24:41;14.40;59.90
37910;DHT22;23741;49.446;8.754;2022-09-23T03:26:45;14.40;60.20
37910;DHT22;23741;49.446;8.754;2022-09-23T03:28:47;14.40;60.10
37910;DHT22;23741;49.446;8.754;2022-09-23T03:30:50;14.40;60.30
37910;DHT22;23741;49.446;8.754;2022-09-23T03:32:53;14.40;60.10
37910;DHT22;23741;49.446;8.754;2022-09-23T03:34:56;14.40;60.40
37910;DHT22;23741;49.446;8.754;2022-09-23T03:41:23;14.40;60.50
37910;DHT22;23741;49.446;8.754;2022-09-23T03:43:29;14.40;60.50
37910;DHT22;23741;49.446;8.754;2022-09-23T03:45:31;14.40;60.20
37910;DHT22;23741;49.446;8.754;2022-09-23T03:47:33;14.40;60.30
37910;DHT22;23741;49.446;8.754;2022-09-23T03:49:36;14.30;60.50
37910;DHT22;23741;49.446;8.754;2022-09-23T03:51:40;14.40;60.30
37910;DHT22;23741;49.446;8.754;2022-09-23T03:53:45;14.30;60.30
37910;DHT22;23741;49.446;8.754;2022-09-23T03:55:46;14.30;60.30
37910;DHT22;23741;49.446;8.754;2022-09-23T03:57:48;14.30;60.30
37910;DHT22;23741;49.446;8.754;2022-09-23T03:59:50;14.30;60.20
37910;DHT22;23741;49.446;8.754;2022-09-23T04:01:52;14.30;60.70
37910;DHT22;23741;49.446;8.754;2022-09-23T04:03:54;14.40;60.40
37910;DHT22;23741;49.446;8.754;2022-09-23T04:05:56;14.30;60.60
37910;DHT22;23741;49.446;8.754;2022-09-23T04:07:57;14.30;60.70
37910;DHT22;23741;49.446;8.754;2022-09-23T04:09:59;14.30;60.90
37910;DHT22;23741;49.446;8.754;2022-09-23T04:12:00;14.30;60.60
37910;DHT22;23741;49.446;8.754;2022-09-23T04:14:02;14.30;60.60
37910;DHT22;23741;49.446;8.754;2022-09-23T04:16:04;14.30;60.60
37910;DHT22;23741;49.446;8.754;2022-09-23T04:18:06;14.30;60.30
37910;DHT22;23741;49.446;8.754;2022-09-23T04:20:08;14.30;60.70
37910;DHT22;23741;49.446;8.754;2022-09-23T04:22:10;14.20;60.50
37910;DHT22;23741;49.446;8.754;2022-09-23T04:24:12;14.30;60.60
37910;DHT22;23741;49.446;8.754;2022-09-23T04:26:14;14.30;60.80
37910;DHT22;23741;49.446;8.754;2022-09-23T04:28:15;14.30;60.40
37910;DHT22;23741;49.446;8.754;2022-09-23T04:30:17;14.30;60.60
37910;DHT22;23741;49.446;8.754;2022-09-23T04:32:20;14.30;60.70
37910;DHT22;23741;49.446;8.754;2022-09-23T04:34:25;14.30;60.50
37910;DHT22;23741;49.446;8.754;2022-09-23T04:36:27;14.20;60.20
37910;DHT22;23741;49.446;8.754;2022-09-23T04:38:30;14.30;60.60
37910;DHT22;23741;49.446;8.754;2022-09-23T04:40:32;14.20;60.70
37910;DHT22;23741;49.446;8.754;2022-09-23T04:42:34;14.30;60.90
37910;DHT22;23741;49.446;8.754;2022-09-23T04:44:35;14.20;61.00
37910;DHT22;23741;49.446;8.754;2022-09-23T04:46:42;14.20;60.70
37910;DHT22;23741;49.446;8.754;2022-09-23T04:48:45;14.20;60.80
37910;DHT22;23741;49.446;8.754;2022-09-23T04:50:47;14.20;61.00
37910;DHT22;23741;49.446;8.754;2022-09-23T04:52:49;14.20;60.90
37910;DHT22;23741;49.446;8.754;2022-09-23T04:54:50;14.20;60.80
37910;DHT22;23741;49.446;8.754;2022-09-23T04:56:52;14.20;60.90
37910;DHT22;23741;49.446;8.754;2022-09-23T04:58:54;14.20;60.90
37910;DHT22;23741;49.446;8.754;2022-09-23T05:01:06;14.20;60.90
37910;DHT22;23741;49.446;8.754;2022-09-23T05:03:08;14.20;60.90
37910;DHT22;23741;49.446;8.754;2022-09-23T05:05:10;14.20;61.00
37910;DHT22;23741;49.446;8.754;2022-09-23T05:07:12;14.20;60.90
37910;DHT22;23741;49.446;8.754;2022-09-23T05:09:17;14.20;61.10
37910;DHT22;23741;49.446;8.754;2022-09-23T05:11:18;14.20;60.90
37910;DHT22;23741;49.446;8.754;2022-09-23T05:13:20;14.20;60.90
37910;DHT22;23741;49.446;8.754;2022-09-23T05:15:22;14.20;60.90
37910;DHT22;23741;49.446;8.754;2022-09-23T05:17:23;14.20;61.00
37910;DHT22;23741;49.446;8.754;2022-09-23T05:19:25;14.20;61.20
37910;DHT22;23741;49.446;8.754;2022-09-23T05:21:27;14.10;61.30
37910;DHT22;23741;49.446;8.754;2022-09-23T05:23:31;14.20;61.20
37910;DHT22;23741;49.446;8.754;2022-09-23T05:25:33;14.10;61.20
37910;DHT22;23741;49.446;8.754;2022-09-23T05:27:38;14.10;61.20
37910;DHT22;23741;49.446;8.754;2022-09-23T05:29:40;14.10;61.40
37910;DHT22;23741;49.446;8.754;2022-09-23T05:31:42;14.20;61.10
37910;DHT22;23741;49.446;8.754;2022-09-23T05:33:44;14.20;61.30
37910;DHT22;23741;49.446;8.754;2022-09-23T05:35:47;14.20;61.30
37910;DHT22;23741;49.446;8.754;2022-09-23T05:37:48;14.20;61.20
37910;DHT22;23741;49.446;8.754;2022-09-23T05:39:50;14.20;61.50
37910;DHT22;23741;49.446;8.754;2022-09-23T05:41:52;14.20;61.70
37910;DHT22;23741;49.446;8.754;2022-09-23T05:43:55;14.20;61.40
37910;DHT22;23741;49.446;8.754;2022-09-23T05:48:08;14.20;61.40
37910;DHT22;23741;49.446;8.754;2022-09-23T05:50:10;14.20;61.10
37910;DHT22;23741;49.446;8.754;2022-09-23T05:52:12;14.30;61.20
37910;DHT22;23741;49.446;8.754;2022-09-23T05:54:14;14.20;61.60
37910;DHT22;23741;49.446;8.754;2022-09-23T05:56:16;14.20;61.80
37910;DHT22;23741;49.446;8.754;2022-09-23T05:58:18;14.20;61.30
37910;DHT22;23741;49.446;8.754;2022-09-23T06:00:20;14.20;61.60
37910;DHT22;23741;49.446;8.754;2022-09-23T06:02:21;14.20;61.90
37910;DHT22;23741;49.446;8.754;2022-09-23T06:04:23;14.20;62.00
37910;DHT22;23741;49.446;8.754;2022-09-23T06:06:26;14.20;61.80
37910;DHT22;23741;49.446;8.754;2022-09-23T06:08:28;14.20;61.80
37910;DHT22;23741;49.446;8.754;2022-09-23T06:10:30;14.20;61.50
37910;DHT22;23741;49.446;8.754;2022-09-23T06:12:34;14.30;62.10
37910;DHT22;23741;49.446;8.754;2022-09-23T06:14:36;14.30;61.80
37910;DHT22;23741;49.446;8.754;2022-09-23T06:16:38;14.30;62.20
37910;DHT22;23741;49.446;8.754;2022-09-23T06:18:43;14.30;62.00
37910;DHT22;23741;49.446;8.754;2022-09-23T06:20:45;14.30;61.80
37910;DHT22;23741;49.446;8.754;2022-09-23T06:22:47;14.30;62.30
37910;DHT22;23741;49.446;8.754;2022-09-23T06:24:53;14.40;62.50
37910;DHT22;23741;49.446;8.754;2022-09-23T06:26:55;14.40;62.10
37910;DHT22;23741;49.446;8.754;2022-09-23T06:28:57;14.40;61.90
37910;DHT22;23741;49.446;8.754;2022-09-23T06:30:59;14.50;61.80
37910;DHT22;23741;49.446;8.754;2022-09-23T06:33:01;14.50;62.10
37910;DHT22;23741;49.446;8.754;2022-09-23T06:35:03;14.50;62.30
37910;DHT22;23741;49.446;8.754;2022-09-23T06:37:04;14.60;62.20
37910;DHT22;23741;49.446;8.754;2022-09-23T06:39:19;14.60;62.00
37910;DHT22;23741;49.446;8.754;2022-09-23T06:41:21;14.60;62.50
37910;DHT22;23741;49.446;8.754;2022-09-23T06:43:23;14.70;62.50
37910;DHT22;23741;49.446;8.754;2022-09-23T06:45:25;14.70;62.20
37910;DHT22;23741;49.446;8.754;2022-09-23T06:47:27;14.70;62.00
37910;DHT22;23741;49.446;8.754;2022-09-23T06:49:29;14.80;62.70
37910;DHT22;23741;49.446;8.754;2022-09-23T06:51:31;14.70;62.30
37910;DHT22;23741;49.446;8.754;2022-09-23T06:53:34;14.80;62.10
37910;DHT22;23741;49.446;8.754;2022-09-23T06:55:35;14.90;62.10
37910;DHT22;23741;49.446;8.754;2022-09-23T06:57:37;14.90;62.10
37910;DHT22;23741;49.446;8.754;2022-09-23T06:59:40;14.90;61.90
37910;DHT22;23741;49.446;8.754;2022-09-23T07:01:42;14.90;61.90
37910;DHT22;23741;49.446;8.754;2022-09-23T07:03:45;15.00;62.10
37910;DHT22;23741;49.446;8.754;2022-09-23T07:05:48;15.00;61.90
37910;DHT22;23741;49.446;8.754;2022-09-23T07:07:54;15.00;62.00
37910;DHT22;23741;49.446;8.754;2022-09-23T07:09:56;15.10;62.10
37910;DHT22;23741;49.446;8.754;2022-09-23T07:11:58;15.10;62.00
37910;DHT22;23741;49.446;8.754;2022-09-23T07:14:00;15.10;62.10
37910;DHT22;23741;49.446;8.754;2022-09-23T07:16:02;15.20;62.00
37910;DHT22;23741;49.446;8.754;2022-09-23T07:18:03;15.20;62.00
37910;DHT22;23741;49.446;8.754;2022-09-23T07:20:05;15.20;62.00
37910;DHT22;23741;49.446;8.754;2022-09-23T07:22:07;15.20;61.90
37910;DHT22;23741;49.446;8.754;2022-09-23T07:24:09;15.30;61.90
37910;DHT22;23741;49.446;8.754;2022-09-23T07:26:11;15.30;61.90
37910;DHT22;23741;49.446;8.754;2022-09-23T07:28:13;15.30;61.80
37910;DHT22;23741;49.446;8.754;2022-09-23T07:30:14;15.40;61.90
37910;DHT22;23741;49.446;8.754;2022-09-23T07:32:26;15.40;61.70
37910;DHT22;23741;49.446;8.754;2022-09-23T07:34:30;15.50;61.80
37910;DHT22;23741;49.446;8.754;2022-09-23T07:36:31;15.50;61.70
37910;DHT22;23741;49.446;8.754;2022-09-23T07:38:33;15.50;61.60
37910;DHT22;23741;49.446;8.754;2022-09-23T07:40:35;15.50;61.50
37910;DHT22;23741;49.446;8.754;2022-09-23T07:42:38;15.60;61.50
37910;DHT22;23741;49.446;8.754;2022-09-23T07:44:41;15.60;61.60
37910;DHT22;23741;49.446;8.754;2022-09-23T07:46:48;15.60;61.80
37910;DHT22;23741;49.446;8.754;2022-09-23T07:48:50;15.60;61.80
37910;DHT22;23741;49.446;8.754;2022-09-23T07:50:52;15.70;61.60
37910;DHT22;23741;49.446;8.754;2022-09-23T07:52:54;15.70;61.50
37910;DHT22;23741;49.446;8.754;2022-09-23T07:54:55;15.70;61.40
37910;DHT22;23741;49.446;8.754;2022-09-23T07:56:57;15.80;62.20
37910;DHT22;23741;49.446;8.754;2022-09-23T07:58:59;15.80;61.40
37910;DHT22;23741;49.446;8.754;2022-09-23T08:01:03;15.80;61.10
37910;DHT22;23741;49.446;8.754;2022-09-23T08:03:06;15.80;61.10
37910;DHT22;23741;49.446;8.754;2022-09-23T08:05:08;15.90;61.20
37910;DHT22;23741;49.446;8.754;2022-09-23T08:07:10;15.90;61.30
37910;DHT22;23741;49.446;8.754;2022-09-23T08:09:12;15.90;61.30
37910;DHT22;23741;49.446;8.754;2022-09-23T08:11:14;15.90;61.20
37910;DHT22;23741;49.446;8.754;2022-09-23T08:13:16;15.90;61.20
37910;DHT22;23741;49.446;8.754;2022-09-23T08:15:18;16.00;61.20
37910;DHT22;23741;49.446;8.754;2022-09-23T08:17:19;16.00;61.30
37910;DHT22;23741;49.446;8.754;2022-09-23T08:19:21;16.10;61.40
37910;DHT22;23741;49.446;8.754;2022-09-23T08:21:23;16.10;61.30
37910;DHT22;23741;49.446;8.754;2022-09-23T08:23:24;16.10;61.10
37910;DHT22;23741;49.446;8.754;2022-09-23T08:25:26;16.20;61.00
37910;DHT22;23741;49.446;8.754;2022-09-23T08:27:28;16.20;61.00
37910;DHT22;23741;49.446;8.754;2022-09-23T08:29:30;16.20;60.90
37910;DHT22;23741;49.446;8.754;2022-09-23T08:31:31;16.20;61.00
37910;DHT22;23741;49.446;8.754;2022-09-23T08:33:33;16.30;61.00
37910;DHT22;23741;49.446;8.754;2022-09-23T08:35:35;16.40;61.10
37910;DHT22;23741;49.446;8.754;2022-09-23T08:37:36;16.40;60.90
37910;DHT22;23741;49.446;8.754;2022-09-23T08:39:38;16.40;60.80
37910;DHT22;23741;49.446;8.754;2022-09-23T08:43:48;16.50;60.70
37910;DHT22;23741;49.446;8.754;2022-09-23T08:45:52;16.50;60.40
37910;DHT22;23741;49.446;8.754;2022-09-23T08:47:57;16.50;60.40
37910;DHT22;23741;49.446;8.754;2022-09-23T08:52:05;16.60;60.30
37910;DHT22;23741;49.446;8.754;2022-09-23T08:54:09;16.60;60.30
37910;DHT22;23741;49.446;8.754;2022-09-23T08:56:13;16.70;60.30
37910;DHT22;23741;49.446;8.754;2022-09-23T09:00:39;16.70;60.10
37910;DHT22;23741;49.446;8.754;2022-09-23T09:02:41;16.80;60.30
37910;DHT22;23741;49.446;8.754;2022-09-23T09:04:43;16.80;60.10
37910;DHT22;23741;49.446;8.754;2022-09-23T09:06:56;16.90;60.10
37910;DHT22;23741;49.446;8.754;2022-09-23T09:09:27;16.90;60.20
37910;DHT22;23741;49.446;8.754;2022-09-23T09:11:32;17.00;60.30
37910;DHT22;23741;49.446;8.754;2022-09-23T09:13:36;17.00;60.20
37910;DHT22;23741;49.446;8.754;2022-09-23T09:15:46;17.00;59.90
37910;DHT22;23741;49.446;8.754;2022-09-23T09:21:55;17.20;59.70
37910;DHT22;23741;49.446;8.754;2022-09-23T09:23:57;17.20;60.10
37910;DHT22;23741;49.446;8.754;2022-09-23T09:26:00;17.20;59.50
37910;DHT22;23741;49.446;8.754;2022-09-23T09:28:13;17.20;59.50
37910;DHT22;23741;49.446;8.754;2022-09-23T09:30:15;17.30;59.40
37910;DHT22;23741;49.446;8.754;2022-09-23T09:32:31;17.30;59.50
37910;DHT22;23741;49.446;8.754;2022-09-23T09:34:42;17.40;59.40
37910;DHT22;23741;49.446;8.754;2022-09-23T09:36:47;17.40;59.50
37910;DHT22;23741;49.446;8.754;2022-09-23T09:38:50;17.40;59.40
37910;DHT22;23741;49.446;8.754;2022-09-23T09:40:54;17.50;59.30
37910;DHT22;23741;49.446;8.754;2022-09-23T09:42:56;17.50;59.30
37910;DHT22;23741;49.446;8.754;2022-09-23T09:45:01;17.60;59.30
37910;DHT22;23741;49.446;8.754;2022-09-23T09:49:10;17.70;59.20
37910;DHT22;23741;49.446;8.754;2022-09-23T09:51:18;17.70;59.10
37910;DHT22;23741;49.446;8.754;2022-09-23T09:55:26;17.90;59.00
37910;DHT22;23741;49.446;8.754;2022-09-23T09:57:29;17.90;59.00
37910;DHT22;23741;49.446;8.754;2022-09-23T09:59:36;17.90;58.80
37910;DHT22;23741;49.446;8.754;2022-09-23T10:01:42;18.00;58.80
37910;DHT22;23741;49.446;8.754;2022-09-23T10:03:44;18.00;58.60
37910;DHT22;23741;49.446;8.754;2022-09-23T10:05:47;18.10;58.70
37910;DHT22;23741;49.446;8.754;2022-09-23T10:07:52;18.10;58.50
37910;DHT22;23741;49.446;8.754;2022-09-23T10:09:54;18.10;58.40
37910;DHT22;23741;49.446;8.754;2022-09-23T10:12:12;18.20;58.40
37910;DHT22;23741;49.446;8.754;2022-09-23T10:14:16;18.30;58.50
37910;DHT22;23741;49.446;8.754;2022-09-23T10:16:18;18.40;58.60
37910;DHT22;23741;49.446;8.754;2022-09-23T10:18:29;18.40;58.50
37910;DHT22;23741;49.446;8.754;2022-09-23T10:20:36;18.50;58.40
37910;DHT22;23741;49.446;8.754;2022-09-23T10:22:40;18.50;58.30
37910;DHT22;23741;49.446;8.754;2022-09-23T10:24:46;18.60;58.40
37910;DHT22;23741;49.446;8.754;2022-09-23T10:26:52;18.70;58.40
37910;DHT22;23741;49.446;8.754;2022-09-23T10:28:56;18.70;58.40
37910;DHT22;23741;49.446;8.754;2022-09-23T10:31:17;18.80;58.40
37910;DHT22;23741;49.446;8.754;2022-09-23T10:33:25;18.90;58.30
37910;DHT22;23741;49.446;8.754;2022-09-23T10:35:27;19.00;58.50
37910;DHT22;23741;49.446;8.754;2022-09-23T10:37:31;19.10;58.50
37910;DHT22;23741;49.446;8.754;2022-09-23T10:39:33;19.20;58.40
37910;DHT22;23741;49.446;8.754;2022-09-23T10:44:25;19.30;58.30
37910;DHT22;23741;49.446;8.754;2022-09-23T10:50:59;19.60;58.50
37910;DHT22;23741;49.446;8.754;2022-09-23T10:53:03;19.70;58.20
37910;DHT22;23741;49.446;8.754;2022-09-23T10:59:55;20.00;58.10
37910;DHT22;23741;49.446;8.754;2022-09-23T11:02:28;20.10;58.00
37910;DHT22;23741;49.446;8.754;2022-09-23T11:06:43;20.30;58.10
37910;DHT22;23741;49.446;8.754;2022-09-23T11:09:02;20.40;58.10
37910;DHT22;23741;49.446;8.754;2022-09-23T11:15:34;20.70;58.10
37910;DHT22;23741;49.446;8.754;2022-09-23T11:26:37;21.20;57.40
37910;DHT22;23741;49.446;8.754;2022-09-23T11:30:57;21.40;57.30
37910;DHT22;23741;49.446;8.754;2022-09-23T11:35:23;21.60;57.10
37910;DHT22;23741;49.446;8.754;2022-09-23T11:37:30;21.70;57.10
37910;DHT22;23741;49.446;8.754;2022-09-23T11:39:36;21.80;57.00
37910;DHT22;23741;49.446;8.754;2022-09-23T11:41:40;21.90;56.90
37910;DHT22;23741;49.446;8.754;2022-09-23T11:43:43;22.00;56.60
37910;DHT22;23741;49.446;8.754;2022-09-23T11:46:01;22.10;56.40
37910;DHT22;23741;49.446;8.754;2022-09-23T11:48:13;22.20;56.40
37910;DHT22;23741;49.446;8.754;2022-09-23T11:52:21;22.40;56.10
37910;DHT22;23741;49.446;8.754;2022-09-23T11:54:27;22.40;55.50
37910;DHT22;23741;49.446;8.754;2022-09-23T11:58:38;22.60;55.70
37910;DHT22;23741;49.446;8.754;2022-09-23T12:00:51;22.60;55.50
37910;DHT22;23741;49.446;8.754;2022-09-23T12:05:40;22.70;55.60
37910;DHT22;23741;49.446;8.754;2022-09-23T12:10:01;22.80;55.60
37910;DHT22;23741;49.446;8.754;2022-09-23T12:14:14;22.90;55.50
37910;DHT22;23741;49.446;8.754;2022-09-23T12:23:02;23.10;53.60
37910;DHT22;23741;49.446;8.754;2022-09-23T12:27:10;23.20;54.20
37910;DHT22;23741;49.446;8.754;2022-09-23T12:29:12;23.20;54.00
37910;DHT22;23741;49.446;8.754;2022-09-23T12:31:19;23.30;54.20
37910;DHT22;23741;49.446;8.754;2022-09-23T12:33:24;23.30;54.10
37910;DHT22;23741;49.446;8.754;2022-09-23T12:35:31;23.40;53.40
37910;DHT22;23741;49.446;8.754;2022-09-23T12:37:38;23.40;53.60
37910;DHT22;23741;49.446;8.754;2022-09-23T12:39:39;23.40;53.20
37910;DHT22;23741;49.446;8.754;2022-09-23T12:41:42;23.40;53.50
37910;DHT22;23741;49.446;8.754;2022-09-23T12:46:24;23.50;53.20
37910;DHT22;23741;49.446;8.754;2022-09-23T12:48:42;23.50;53.50
37910;DHT22;23741;49.446;8.754;2022-09-23T12:52:52;23.60;53.30
37910;DHT22;23741;49.446;8.754;2022-09-23T12:54:54;23.60;53.20
37910;DHT22;23741;49.446;8.754;2022-09-23T12:56:57;23.60;53.20
37910;DHT22;23741;49.446;8.754;2022-09-23T12:59:00;23.60;53.20
37910;DHT22;23741;49.446;8.754;2022-09-23T13:01:06;23.70;53.10
37910;DHT22;23741;49.446;8.754;2022-09-23T13:03:08;23.70;52.40
37910;DHT22;23741;49.446;8.754;2022-09-23T13:05:31;23.70;52.80
37910;DHT22;23741;49.446;8.754;2022-09-23T13:07:54;23.70;52.80
37910;DHT22;23741;49.446;8.754;2022-09-23T13:10:05;23.70;52.50
37910;DHT22;23741;49.446;8.754;2022-09-23T13:12:21;23.70;52.60
37910;DHT22;23741;49.446;8.754;2022-09-23T13:14:25;23.70;53.00
37910;DHT22;23741;49.446;8.754;2022-09-23T13:16:49;23.70;52.70
37910;DHT22;23741;49.446;8.754;2022-09-23T13:20:55;23.70;52.40
37910;DHT22;23741;49.446;8.754;2022-09-23T13:24:59;23.80;52.30
37910;DHT22;23741;49.446;8.754;2022-09-23T13:29:03;23.80;52.10
37910;DHT22;23741;49.446;8.754;2022-09-23T13:31:11;23.80;52.10
37910;DHT22;23741;49.446;8.754;2022-09-23T13:33:15;23.80;51.70
37910;DHT22;23741;49.446;8.754;2022-09-23T13:35:23;23.80;52.00
37910;DHT22;23741;49.446;8.754;2022-09-23T13:37:45;23.80;51.80
37910;DHT22;23741;49.446;8.754;2022-09-23T13:39:47;23.80;52.50
37910;DHT22;23741;49.446;8.754;2022-09-23T13:41:50;23.80;51.60
37910;DHT22;23741;49.446;8.754;2022-09-23T13:43:56;23.80;51.60
37910;DHT22;23741;49.446;8.754;2022-09-23T13:45:59;23.80;52.10
37910;DHT22;23741;49.446;8.754;2022-09-23T13:48:12;23.80;51.90
37910;DHT22;23741;49.446;8.754;2022-09-23T13:50:18;23.80;51.60
37910;DHT22;23741;49.446;8.754;2022-09-23T13:52:25;23.80;51.70
37910;DHT22;23741;49.446;8.754;2022-09-23T13:54:31;23.80;51.70
37910;DHT22;23741;49.446;8.754;2022-09-23T13:56:33;23.80;51.50
37910;DHT22;23741;49.446;8.754;2022-09-23T13:58:37;23.80;51.40
37910;DHT22;23741;49.446;8.754;2022-09-23T14:00:38;23.70;51.50
37910;DHT22;23741;49.446;8.754;2022-09-23T14:02:43;23.70;51.50
37910;DHT22;23741;49.446;8.754;2022-09-23T14:04:47;23.70;51.60
37910;DHT22;23741;49.446;8.754;2022-09-23T14:06:49;23.60;51.50
37910;DHT22;23741;49.446;8.754;2022-09-23T14:08:50;23.60;51.60
37910;DHT22;23741;49.446;8.754;2022-09-23T14:10:52;23.60;51.40
37910;DHT22;23741;49.446;8.754;2022-09-23T14:12:55;23.50;51.60
37910;DHT22;23741;49.446;8.754;2022-09-23T14:14:57;23.50;51.90
37910;DHT22;23741;49.446;8.754;2022-09-23T14:16:59;23.40;51.80
37910;DHT22;23741;49.446;8.754;2022-09-23T14:19:01;23.40;52.10
37910;DHT22;23741;49.446;8.754;2022-09-23T14:21:03;23.40;52.40
37910;DHT22;23741;49.446;8.754;2022-09-23T14:23:09;23.30;52.20
37910;DHT22;23741;49.446;8.754;2022-09-23T14:25:12;23.30;52.20
37910;DHT22;23741;49.446;8.754;2022-09-23T14:27:16;23.30;52.30
37910;DHT22;23741;49.446;8.754;2022-09-23T14:29:19;23.30;52.50
37910;DHT22;23741;49.446;8.754;2022-09-23T14:31:23;23.30;52.60
37910;DHT22;23741;49.446;8.754;2022-09-23T14:33:26;23.30;52.40
37910;DHT22;23741;49.446;8.754;2022-09-23T14:35:37;23.30;52.40
37910;DHT22;23741;49.446;8.754;2022-09-23T14:37:40;23.30;52.20
37910;DHT22;23741;49.446;8.754;2022-09-23T14:40:02;23.30;51.90
37910;DHT22;23741;49.446;8.754;2022-09-23T14:42:05;23.30;52.00
37910;DHT22;23741;49.446;8.754;2022-09-23T14:44:13;23.30;52.00
37910;DHT22;23741;49.446;8.754;2022-09-23T14:46:19;23.30;52.10
37910;DHT22;23741;49.446;8.754;2022-09-23T14:50:23;23.30;51.90
37910;DHT22;23741;49.446;8.754;2022-09-23T14:52:47;23.30;52.30
37910;DHT22;23741;49.446;8.754;2022-09-23T14:54:49;23.30;52.40
37910;DHT22;23741;49.446;8.754;2022-09-23T14:56:51;23.30;52.50
37910;DHT22;23741;49.446;8.754;2022-09-23T14:58:55;23.30;52.50
37910;DHT22;23741;49.446;8.754;2022-09-23T15:00:58;23.40;52.70
37910;DHT22;23741;49.446;8.754;2022-09-23T15:03:01;23.40;52.70
37910;DHT22;23741;49.446;8.754;2022-09-23T15:07:14;23.40;52.70
37910;DHT22;23741;49.446;8.754;2022-09-23T15:09:21;23.40;52.70
37910;DHT22;23741;49.446;8.754;2022-09-23T15:11:24;23.40;52.50
37910;DHT22;23741;49.446;8.754;2022-09-23T15:13:26;23.40;52.70
37910;DHT22;23741;49.446;8.754;2022-09-23T15:15:29;23.40;52.50
37910;DHT22;23741;49.446;8.754;2022-09-23T15:17:33;23.40;52.40
37910;DHT22;23741;49.446;8.754;2022-09-23T15:19:36;23.40;52.60